createdAt,value
2023-04-16T00:02:04.702Z,4.60
2023-04-16T00:04:31.783Z,6.47
2023-04-16T00:06:58.768Z,8.18
2023-04-16T00:09:25.713Z,7.45
2023-04-16T00:11:52.683Z,9.50
2023-04-16T00:14:20.984Z,9.25
2023-04-16T00:16:47.994Z,11.10
2023-04-16T00:19:14.998Z,8.13
2023-04-16T00:21:41.988Z,9.48
2023-04-16T00:24:09.300Z,12.00
2023-04-16T00:26:36.186Z,6.82
2023-04-16T00:29:03.139Z,8.95
2023-04-16T00:31:32.574Z,7.60
2023-04-16T00:33:59.571Z,12.30
2023-04-16T00:36:27.836Z,6.90
2023-04-16T00:38:56.693Z,7.38
2023-04-16T00:41:23.848Z,8.43
2023-04-16T00:43:51.748Z,10.35
2023-04-16T00:46:21.941Z,8.73
2023-04-16T00:48:51.700Z,8.48
2023-04-16T00:51:20.173Z,15.30
2023-04-16T00:53:47.709Z,8.18
2023-04-16T00:56:14.922Z,10.15
2023-04-16T00:58:41.852Z,8.02
2023-04-16T01:01:08.936Z,9.40
2023-04-16T01:03:39.540Z,10.00
2023-04-16T01:06:08.314Z,8.13
2023-04-16T01:08:35.728Z,7.22
2023-04-16T01:11:03.288Z,11.27
2023-04-16T01:13:30.565Z,9.80
2023-04-16T01:15:57.845Z,11.95
2023-04-16T01:18:27.706Z,7.47
2023-04-16T01:20:55.999Z,15.10
2023-04-16T01:23:23.119Z,10.27
2023-04-16T01:25:50.094Z,8.10
2023-04-16T01:28:17.136Z,12.20
2023-04-16T01:30:44.230Z,12.50
2023-04-16T01:33:24.243Z,11.77
2023-04-16T01:35:51.209Z,17.58
2023-04-16T01:38:19.900Z,11.90
2023-04-16T01:40:46.862Z,11.18
2023-04-16T01:43:13.754Z,13.70
2023-04-16T01:45:41.161Z,10.40
2023-04-16T01:48:09.195Z,15.70
2023-04-16T01:50:36.340Z,11.52
2023-04-16T01:53:05.214Z,6.93
2023-04-16T01:55:34.454Z,14.30
2023-04-16T01:58:01.624Z,14.15
2023-04-16T02:00:33.780Z,17.67
2023-04-16T02:03:00.905Z,6.90
2023-04-16T02:05:28.858Z,13.43
2023-04-16T02:07:56.022Z,10.93
2023-04-16T02:10:23.472Z,12.85
2023-04-16T02:12:52.428Z,14.90
2023-04-16T02:15:19.306Z,11.48
2023-04-16T02:17:47.956Z,14.00
2023-04-16T02:20:15.185Z,12.10
2023-04-16T02:22:55.161Z,10.02
2023-04-16T02:25:24.388Z,11.18
2023-04-16T02:27:55.396Z,10.05
2023-04-16T02:30:36.767Z,11.10
2023-04-16T02:33:07.273Z,9.70
2023-04-16T02:35:35.289Z,9.57
2023-04-16T02:38:02.705Z,12.98
2023-04-16T02:40:30.789Z,11.95
2023-04-16T02:42:59.300Z,6.78
2023-04-16T02:45:26.574Z,13.15
2023-04-16T02:47:53.555Z,11.32
2023-04-16T02:50:20.555Z,14.50
2023-04-16T02:52:48.661Z,14.65
2023-04-16T02:55:16.121Z,13.63
2023-04-16T02:57:43.184Z,12.55
2023-04-16T03:00:12.851Z,20.20
2023-04-16T03:02:39.935Z,12.68
2023-04-16T03:05:07.593Z,7.88
2023-04-16T03:07:35.236Z,16.58
2023-04-16T03:10:02.486Z,12.18
2023-04-16T03:12:29.508Z,16.95
2023-04-16T03:14:56.819Z,12.43
2023-04-16T03:17:25.373Z,12.20
2023-04-16T03:19:52.386Z,16.00
2023-04-16T03:22:19.888Z,12.77
2023-04-16T03:24:46.911Z,10.73
2023-04-16T03:27:13.910Z,13.20
2023-04-16T03:29:41.476Z,14.93
2023-04-16T03:32:09.016Z,14.35
2023-04-16T03:34:38.400Z,15.02
2023-04-16T03:37:06.300Z,12.43
2023-04-16T03:39:34.594Z,13.45
2023-04-16T03:42:02.363Z,10.82
2023-04-16T03:44:29.593Z,16.25
2023-04-16T03:46:56.612Z,10.52
2023-04-16T03:49:23.818Z,11.85
2023-04-16T03:51:52.685Z,16.55
2023-04-16T03:54:22.068Z,14.40
2023-04-16T03:56:57.104Z,13.50
2023-04-16T03:59:24.575Z,10.95
2023-04-16T04:01:51.501Z,15.60
2023-04-16T04:04:18.574Z,17.02
2023-04-16T04:06:46.352Z,16.00
2023-04-16T04:09:18.104Z,8.13
2023-04-16T04:11:45.968Z,18.45
2023-04-16T04:14:12.989Z,15.20
2023-04-16T04:16:40.386Z,12.50
2023-04-16T04:19:07.675Z,17.17
2023-04-16T04:21:34.812Z,20.17
2023-04-16T04:24:03.694Z,20.70
2023-04-16T04:26:33.979Z,20.67
2023-04-16T04:29:00.978Z,28.15
2023-04-16T04:31:28.004Z,27.30
2023-04-16T04:33:56.020Z,25.42
2023-04-16T04:36:22.957Z,16.50
2023-04-16T04:38:50.312Z,20.58
2023-04-16T04:41:17.612Z,19.52
2023-04-16T04:43:46.070Z,18.92
2023-04-16T04:46:13.249Z,18.13
2023-04-16T04:48:41.120Z,16.95
2023-04-16T04:51:08.171Z,13.02
2023-04-16T04:53:35.274Z,14.77
2023-04-16T04:56:12.472Z,11.60
2023-04-16T04:58:40.660Z,15.02
2023-04-16T05:01:09.143Z,11.07
2023-04-16T05:03:36.647Z,15.63
2023-04-16T05:06:03.874Z,14.13
2023-04-16T05:08:31.033Z,14.25
2023-04-16T05:10:58.426Z,22.45
2023-04-16T05:13:25.507Z,19.85
2023-04-16T05:15:52.415Z,13.38
2023-04-16T05:18:20.981Z,23.75
2023-04-16T05:20:48.176Z,17.30
2023-04-16T05:23:15.742Z,22.20
2023-04-16T05:25:42.679Z,13.07
2023-04-16T05:28:10.401Z,20.85
2023-04-16T05:30:37.376Z,13.85
2023-04-16T05:33:04.312Z,18.60
2023-04-16T05:35:32.719Z,24.83
2023-04-16T05:37:59.840Z,18.52
2023-04-16T05:40:27.100Z,25.85
2023-04-16T05:42:54.021Z,22.60
2023-04-16T05:45:21.300Z,21.85
2023-04-16T05:47:48.302Z,16.77
2023-04-16T05:50:15.430Z,19.60
2023-04-16T05:52:43.791Z,22.63
2023-04-16T05:55:10.941Z,32.60
2023-04-16T05:57:37.870Z,21.40
2023-04-16T06:00:06.004Z,20.40
2023-04-16T06:02:39.355Z,17.45
2023-04-16T06:05:06.982Z,21.88
2023-04-16T06:07:33.949Z,17.83
2023-04-16T06:10:02.332Z,18.85
2023-04-16T06:12:29.341Z,22.00
2023-04-16T06:14:56.347Z,18.38
2023-04-16T06:17:23.473Z,20.55
2023-04-16T06:19:50.368Z,23.48
2023-04-16T06:22:17.307Z,23.95
2023-04-16T06:24:44.380Z,24.92
2023-04-16T06:27:12.747Z,24.02
2023-04-16T06:29:41.726Z,19.05
2023-04-16T06:32:09.011Z,16.70
2023-04-16T06:34:36.207Z,19.50
2023-04-16T06:37:03.221Z,18.77
2023-04-16T06:39:31.108Z,17.02
2023-04-16T06:41:58.098Z,23.52
2023-04-16T06:44:26.567Z,21.67
2023-04-16T06:46:53.651Z,23.60
2023-04-16T06:49:21.563Z,18.08
2023-04-16T06:51:48.518Z,12.68
2023-04-16T06:54:15.583Z,18.38
2023-04-16T06:56:42.557Z,23.83
2023-04-16T06:59:09.685Z,14.00
2023-04-16T07:01:38.432Z,20.13
2023-04-16T07:04:05.746Z,19.33
2023-04-16T07:06:32.959Z,22.70
2023-04-16T07:08:59.843Z,17.00
2023-04-16T07:11:27.435Z,18.25
2023-04-16T07:13:54.420Z,21.00
2023-04-16T07:16:21.442Z,13.32
2023-04-16T07:18:49.776Z,20.63
2023-04-16T07:21:17.004Z,19.35
2023-04-16T07:23:43.907Z,18.80
2023-04-16T07:26:11.909Z,18.98
2023-04-16T07:28:39.192Z,15.07
2023-04-16T07:31:06.325Z,17.75
2023-04-16T07:33:33.246Z,22.08
2023-04-16T07:36:01.577Z,26.75
2023-04-16T07:38:28.848Z,19.48
2023-04-16T07:40:56.789Z,12.80
2023-04-16T07:43:23.823Z,16.88
2023-04-16T07:45:51.040Z,21.05
2023-04-16T07:48:17.971Z,17.33
2023-04-16T07:50:44.992Z,16.83
2023-04-16T07:53:13.270Z,16.30
2023-04-16T07:55:40.329Z,15.25
2023-04-16T07:58:09.437Z,20.60
2023-04-16T08:00:36.463Z,17.13
2023-04-16T08:03:04.110Z,11.88
2023-04-16T08:05:31.372Z,15.98
2023-04-16T08:07:58.450Z,15.65
2023-04-16T08:10:27.588Z,17.23
2023-04-16T08:12:54.548Z,14.63
2023-04-16T08:15:21.590Z,14.75
2023-04-16T08:17:48.860Z,16.13
2023-04-16T08:20:18.634Z,15.60
2023-04-16T08:22:46.385Z,18.20
2023-04-16T08:25:13.396Z,14.43
2023-04-16T08:27:41.705Z,19.88
2023-04-16T08:30:08.888Z,18.77
2023-04-16T08:32:35.983Z,23.27
2023-04-16T08:35:03.056Z,16.48
2023-04-16T08:37:29.985Z,15.77
2023-04-16T08:39:56.923Z,15.18
2023-04-16T08:42:30.813Z,14.70
2023-04-16T08:45:06.764Z,13.10
2023-04-16T08:47:35.340Z,15.88
2023-04-16T08:50:04.856Z,11.38
2023-04-16T08:52:32.501Z,14.77
2023-04-16T08:55:05.460Z,13.93
2023-04-16T08:57:39.594Z,11.43
2023-04-16T09:00:09.994Z,16.87
2023-04-16T09:02:37.505Z,16.73
2023-04-16T09:05:07.127Z,14.57
2023-04-16T09:07:34.986Z,17.70
2023-04-16T09:10:03.217Z,18.33
2023-04-16T09:12:30.631Z,21.92
2023-04-16T09:14:59.815Z,15.27
2023-04-16T09:17:28.390Z,10.55
2023-04-16T09:19:55.645Z,17.23
2023-04-16T09:22:22.598Z,14.02
2023-04-16T09:24:52.268Z,15.18
2023-04-16T09:27:19.667Z,13.75
2023-04-16T09:29:46.840Z,19.30
2023-04-16T09:32:13.858Z,21.45
2023-04-16T09:34:58.072Z,18.05
2023-04-16T09:37:26.103Z,16.20
2023-04-16T09:39:55.532Z,14.63
2023-04-16T09:42:24.356Z,18.30
2023-04-16T09:44:52.361Z,17.45
2023-04-16T09:47:19.459Z,11.70
2023-04-16T09:49:47.217Z,14.95
2023-04-16T09:52:16.462Z,23.45
2023-04-16T09:54:47.934Z,16.77
2023-04-16T09:57:16.005Z,15.98
2023-04-16T09:59:43.191Z,12.77
2023-04-16T10:02:15.886Z,16.63
2023-04-16T10:04:51.400Z,19.02
2023-04-16T10:07:20.316Z,17.90
2023-04-16T10:09:52.501Z,13.80
2023-04-16T10:12:19.656Z,22.42
2023-04-16T10:14:48.349Z,12.13
2023-04-16T10:17:17.569Z,12.50
2023-04-16T10:19:45.667Z,12.88
2023-04-16T10:22:12.824Z,10.48
2023-04-16T10:24:41.582Z,12.80
2023-04-16T10:27:08.698Z,9.80
2023-04-16T10:29:36.471Z,11.23
2023-04-16T10:32:04.367Z,14.57
2023-04-16T10:34:31.963Z,11.15
2023-04-16T10:36:59.770Z,13.93
2023-04-16T10:39:29.504Z,12.35
2023-04-16T10:42:09.293Z,13.98
2023-04-16T10:44:36.649Z,14.35
2023-04-16T10:47:10.026Z,15.18
2023-04-16T10:49:37.327Z,30.13
2023-04-16T10:52:10.102Z,18.30
2023-04-16T10:54:37.529Z,17.17
2023-04-16T10:57:06.544Z,20.10
2023-04-16T10:59:36.705Z,16.30
2023-04-16T11:02:08.656Z,15.38
2023-04-16T11:04:37.524Z,12.65
2023-04-16T11:07:16.500Z,12.35
2023-04-16T11:09:51.293Z,10.77
2023-04-16T11:12:20.097Z,10.02
2023-04-16T11:14:50.244Z,9.60
2023-04-16T11:17:17.705Z,8.80
2023-04-16T11:19:44.844Z,7.20
2023-04-16T11:22:17.301Z,9.38
2023-04-16T11:24:45.276Z,10.73
2023-04-16T11:27:16.118Z,9.25
2023-04-16T11:29:45.057Z,7.32
2023-04-16T11:32:22.762Z,8.43
2023-04-16T11:34:50.237Z,2.97
2023-04-16T11:37:20.999Z,2.63
2023-04-16T11:39:49.397Z,4.72
2023-04-16T11:42:21.395Z,5.35
2023-04-16T11:44:53.325Z,8.20
2023-04-16T11:47:22.705Z,9.80
2023-04-16T11:49:50.106Z,4.10
2023-04-16T11:52:27.418Z,7.22
2023-04-16T11:54:54.730Z,6.93
2023-04-16T11:57:26.601Z,6.15
2023-04-16T12:00:02.408Z,7.07
2023-04-16T12:02:42.078Z,3.88
2023-04-16T12:05:28.641Z,6.25
2023-04-16T12:07:55.884Z,3.10
2023-04-16T12:10:22.890Z,4.93
2023-04-16T12:12:50.333Z,5.50
2023-04-16T12:15:17.462Z,2.90
2023-04-16T12:17:46.230Z,4.85
2023-04-16T12:20:15.396Z,2.55
2023-04-16T12:22:45.459Z,2.42
2023-04-16T12:25:14.522Z,3.45
2023-04-16T12:27:43.387Z,1.58
2023-04-16T12:30:10.920Z,1.50
2023-04-16T12:32:38.031Z,5.18
2023-04-16T12:35:07.771Z,3.75
2023-04-16T12:37:35.427Z,4.40
2023-04-16T12:40:02.441Z,3.00
2023-04-16T12:42:35.631Z,3.08
2023-04-16T12:45:04.040Z,3.70
2023-04-16T12:47:31.418Z,2.47
2023-04-16T12:49:58.694Z,3.38
2023-04-16T12:52:28.084Z,4.10
2023-04-16T12:54:55.132Z,4.20
2023-04-16T12:57:23.872Z,9.57
2023-04-16T12:59:50.954Z,2.67
2023-04-16T13:02:17.989Z,3.53
2023-04-16T13:04:45.138Z,2.72
2023-04-16T13:07:12.170Z,6.55
2023-04-16T13:09:41.108Z,5.75
2023-04-16T13:12:08.189Z,4.28
2023-04-16T13:14:35.259Z,8.15
2023-04-16T13:17:02.517Z,5.18
2023-04-16T13:19:29.749Z,4.95
2023-04-16T13:21:56.749Z,6.32
2023-04-16T13:24:24.215Z,4.13
2023-04-16T13:26:53.667Z,7.38
2023-04-16T13:29:20.796Z,5.35
2023-04-16T13:31:48.149Z,7.00
2023-04-16T13:34:15.403Z,3.92
2023-04-16T13:36:42.354Z,4.38
2023-04-16T13:39:13.073Z,7.32
2023-04-16T13:41:40.497Z,4.95
2023-04-16T13:44:08.844Z,7.00
2023-04-16T13:46:35.839Z,5.60
2023-04-16T13:49:02.891Z,5.65
2023-04-16T13:51:29.906Z,10.32
2023-04-16T13:53:56.852Z,6.65
2023-04-16T13:56:23.815Z,5.85
2023-04-16T13:58:50.861Z,6.80
2023-04-16T14:01:19.657Z,3.95
2023-04-16T14:03:47.159Z,5.60
2023-04-16T14:06:15.090Z,5.95
2023-04-16T14:08:42.026Z,6.45
2023-04-16T14:11:09.262Z,4.97
2023-04-16T14:13:36.876Z,4.88
2023-04-16T14:16:04.263Z,4.10
2023-04-16T14:18:32.620Z,5.38
2023-04-16T14:21:02.046Z,6.50
2023-04-16T14:23:29.116Z,11.85
2023-04-16T14:25:56.860Z,5.75
2023-04-16T14:28:23.804Z,3.90
2023-04-16T14:30:50.908Z,5.65
2023-04-16T14:33:17.885Z,5.35
2023-04-16T14:35:46.586Z,5.20
2023-04-16T14:38:13.546Z,8.50
2023-04-16T14:40:40.654Z,11.55
2023-04-16T14:43:07.671Z,7.63
2023-04-16T14:45:34.673Z,6.95
2023-04-16T14:48:02.129Z,5.00
2023-04-16T14:50:29.145Z,2.80
2023-04-16T14:52:57.622Z,7.75
2023-04-16T14:55:24.535Z,3.85
2023-04-16T14:57:51.559Z,5.10
2023-04-16T15:00:18.892Z,5.07
2023-04-16T15:02:47.494Z,4.20
2023-04-16T15:05:14.591Z,5.50
2023-04-16T15:07:41.513Z,5.65
2023-04-16T15:10:10.875Z,4.63
2023-04-16T15:12:37.986Z,5.32
2023-04-16T15:15:06.395Z,4.88
2023-04-16T15:17:33.425Z,2.33
2023-04-16T15:20:00.727Z,6.40
2023-04-16T15:22:29.984Z,4.85
2023-04-16T15:24:56.917Z,3.28
2023-04-16T15:27:25.348Z,6.75
2023-04-16T15:29:53.952Z,3.72
2023-04-16T15:32:20.998Z,6.80
2023-04-16T15:34:47.991Z,4.57
2023-04-16T15:37:16.121Z,6.43
2023-04-16T15:39:43.299Z,7.13
2023-04-16T15:42:11.479Z,7.65
2023-04-16T15:44:40.435Z,3.88
2023-04-16T15:47:08.666Z,4.32
2023-04-16T15:49:36.374Z,6.32
2023-04-16T15:52:03.613Z,3.10
2023-04-16T15:54:31.840Z,8.02
2023-04-16T15:56:59.115Z,2.00
2023-04-16T15:59:29.339Z,3.83
2023-04-16T16:01:57.754Z,6.75
2023-04-16T16:04:26.589Z,3.08
2023-04-16T16:06:53.901Z,4.35
2023-04-16T16:09:25.866Z,10.07
2023-04-16T16:11:54.356Z,5.13
2023-04-16T16:14:22.363Z,4.57
2023-04-16T16:16:49.402Z,4.57
2023-04-16T16:19:17.825Z,2.90
2023-04-16T16:21:44.765Z,5.00
2023-04-16T16:24:11.697Z,3.78
2023-04-16T16:26:38.640Z,6.93
2023-04-16T16:29:05.710Z,6.30
2023-04-16T16:31:32.810Z,3.95
2023-04-16T16:33:59.827Z,6.75
2023-04-16T16:36:30.044Z,5.97
2023-04-16T16:38:57.287Z,5.63
2023-04-16T16:41:24.221Z,4.63
2023-04-16T16:43:51.721Z,7.43
2023-04-16T16:46:18.773Z,3.33
2023-04-16T16:48:46.416Z,6.80
2023-04-16T16:51:14.966Z,5.43
2023-04-16T16:53:43.385Z,7.55
2023-04-16T16:56:10.595Z,5.50
2023-04-16T16:58:37.524Z,6.03
2023-04-16T17:01:04.495Z,7.45
2023-04-16T17:03:31.577Z,8.85
2023-04-16T17:05:59.131Z,5.32
2023-04-16T17:08:26.075Z,18.67
2023-04-16T17:10:54.463Z,7.38
2023-04-16T17:13:21.574Z,6.65
2023-04-16T17:15:48.471Z,8.20
2023-04-16T17:18:15.585Z,6.43
2023-04-16T17:20:43.025Z,9.20
2023-04-16T17:23:09.928Z,9.50
2023-04-16T17:25:36.859Z,13.70
2023-04-16T17:28:05.556Z,6.03
2023-04-16T17:30:32.487Z,6.10
2023-04-16T17:32:59.708Z,7.10
2023-04-16T17:35:26.683Z,9.13
2023-04-16T17:37:53.629Z,7.88
2023-04-16T17:40:20.929Z,5.38
2023-04-16T17:42:48.775Z,6.07
2023-04-16T17:45:17.412Z,5.47
2023-04-16T17:47:44.517Z,10.20
2023-04-16T17:50:12.295Z,15.98
2023-04-16T17:52:39.279Z,5.32
2023-04-16T17:55:07.735Z,5.43
2023-04-16T17:57:34.636Z,13.18
2023-04-16T18:00:01.677Z,3.38
2023-04-16T18:02:43.308Z,3.42
2023-04-16T18:05:10.656Z,5.03
2023-04-16T18:07:38.989Z,10.40
2023-04-16T18:10:07.539Z,5.72
2023-04-16T18:12:35.056Z,4.50
2023-04-16T18:15:02.018Z,7.20
2023-04-16T18:17:29.014Z,7.47
2023-04-16T18:19:57.834Z,7.95
2023-04-16T18:22:26.302Z,8.95
2023-04-16T18:24:54.912Z,3.85
2023-04-16T18:27:22.036Z,3.53
2023-04-16T18:29:49.512Z,4.78
2023-04-16T18:32:16.795Z,3.92
2023-04-16T18:34:44.218Z,4.25
2023-04-16T18:37:12.570Z,4.43
2023-04-16T18:39:39.621Z,7.30
2023-04-16T18:42:06.722Z,4.43
2023-04-16T18:44:33.739Z,3.72
2023-04-16T18:47:00.744Z,9.57
2023-04-16T18:49:27.761Z,6.53
2023-04-16T18:51:57.194Z,4.68
2023-04-16T18:54:25.527Z,4.55
2023-04-16T18:56:52.499Z,3.50
2023-04-16T18:59:19.695Z,4.70
2023-04-16T19:01:46.768Z,5.68
2023-04-16T19:04:13.705Z,10.68
2023-04-16T19:06:41.065Z,13.60
2023-04-16T19:09:10.136Z,12.25
2023-04-16T19:11:39.827Z,5.95
2023-04-16T19:14:07.887Z,3.25
2023-04-16T19:16:35.161Z,5.70
2023-04-16T19:19:02.187Z,7.85
2023-04-16T19:21:29.136Z,8.65
2023-04-16T19:23:56.114Z,8.75
2023-04-16T19:26:23.389Z,3.63
2023-04-16T19:28:51.878Z,3.15
2023-04-16T19:31:18.837Z,3.78
2023-04-16T19:33:45.879Z,6.10
2023-04-16T19:36:12.816Z,7.75
2023-04-16T19:38:39.739Z,4.22
2023-04-16T19:41:06.824Z,4.43
2023-04-16T19:43:34.234Z,2.88
2023-04-16T19:46:03.335Z,2.05
2023-04-16T19:48:31.771Z,1.98
2023-04-16T19:51:02.723Z,4.43
2023-04-16T19:53:29.712Z,2.92
2023-04-16T19:55:56.691Z,6.93
2023-04-16T19:58:24.232Z,4.88
2023-04-16T20:00:51.173Z,8.50
2023-04-16T20:03:19.566Z,3.92
2023-04-16T20:05:48.601Z,3.67
2023-04-16T20:08:15.871Z,2.45
2023-04-16T20:10:42.808Z,6.00
2023-04-16T20:13:12.082Z,2.35
2023-04-16T20:15:39.061Z,6.22
2023-04-16T20:18:06.875Z,5.43
2023-04-16T20:20:37.846Z,4.75
2023-04-16T20:23:04.911Z,2.75
2023-04-16T20:25:32.029Z,7.15
2023-04-16T20:27:58.914Z,5.70
2023-04-16T20:30:29.506Z,5.82
2023-04-16T20:32:56.741Z,9.57
2023-04-16T20:35:23.695Z,8.60
2023-04-16T20:37:52.127Z,5.28
2023-04-16T20:40:19.134Z,12.60
2023-04-16T20:42:46.463Z,4.97
2023-04-16T20:45:13.642Z,6.55
2023-04-16T20:47:40.723Z,5.13
2023-04-16T20:50:08.783Z,7.40
2023-04-16T20:52:36.504Z,5.18
2023-04-16T20:55:05.835Z,18.92
2023-04-16T20:57:32.819Z,7.93
2023-04-16T20:59:59.784Z,10.88
2023-04-16T21:02:28.447Z,4.80
2023-04-16T21:04:55.699Z,5.07
2023-04-16T21:07:22.807Z,8.50
2023-04-16T21:09:49.809Z,3.88
2023-04-16T21:12:18.127Z,4.63
2023-04-16T21:14:45.137Z,10.35
2023-04-16T21:17:12.026Z,3.92
2023-04-16T21:19:40.171Z,7.30
2023-04-16T21:22:07.274Z,4.40
2023-04-16T21:24:34.250Z,3.00
2023-04-16T21:27:01.768Z,3.25
2023-04-16T21:29:30.570Z,3.53
2023-04-16T21:31:57.628Z,10.60
2023-04-16T21:34:24.622Z,5.20
2023-04-16T21:36:51.522Z,6.82
2023-04-16T21:39:19.868Z,7.60
2023-04-16T21:41:46.984Z,6.05
2023-04-16T21:44:15.165Z,6.55
2023-04-16T21:46:43.529Z,4.47
2023-04-16T21:49:10.670Z,6.65
2023-04-16T21:51:40.036Z,4.07
2023-04-16T21:54:07.424Z,9.63
2023-04-16T21:56:34.334Z,8.05
2023-04-16T21:59:01.245Z,7.05
2023-04-16T22:01:28.226Z,4.88
2023-04-16T22:03:56.644Z,6.20
2023-04-16T22:06:23.836Z,7.43
2023-04-16T22:08:50.767Z,4.55
2023-04-16T22:11:17.780Z,5.43
2023-04-16T22:13:46.279Z,9.30
2023-04-16T22:16:13.335Z,5.93
2023-04-16T22:18:41.187Z,4.90
2023-04-16T22:21:09.532Z,3.75
2023-04-16T22:23:36.459Z,6.63
2023-04-16T22:26:04.500Z,4.30
2023-04-16T22:28:31.861Z,4.45
2023-04-16T22:30:58.810Z,5.45
2023-04-16T22:33:28.587Z,3.60
2023-04-16T22:35:56.048Z,5.57
2023-04-16T22:38:24.310Z,11.27
2023-04-16T22:40:51.190Z,8.02
2023-04-16T22:43:18.127Z,7.28
2023-04-16T22:45:46.387Z,7.28
2023-04-16T22:48:13.567Z,6.93
2023-04-16T22:50:45.943Z,6.30
2023-04-16T22:53:13.127Z,6.50
2023-04-16T22:55:41.437Z,4.97
2023-04-16T22:58:08.594Z,6.03
2023-04-16T23:00:36.034Z,7.00
2023-04-16T23:03:03.095Z,4.07
2023-04-16T23:05:30.080Z,4.40
2023-04-16T23:07:56.991Z,7.60
2023-04-16T23:10:23.901Z,9.02
2023-04-16T23:12:52.451Z,7.75
2023-04-16T23:15:19.928Z,6.38
2023-04-16T23:17:46.938Z,9.07
2023-04-16T23:20:14.273Z,8.57
2023-04-16T23:22:41.440Z,6.40
2023-04-16T23:25:09.355Z,5.28
2023-04-16T23:27:37.031Z,6.95
2023-04-16T23:30:06.833Z,7.60
2023-04-16T23:32:36.595Z,8.00
2023-04-16T23:35:03.709Z,7.30
2023-04-16T23:37:30.673Z,9.60
2023-04-16T23:39:57.660Z,10.23
2023-04-16T23:42:24.640Z,8.38
2023-04-16T23:44:51.557Z,8.60
2023-04-16T23:47:19.924Z,7.03
2023-04-16T23:49:46.890Z,8.30
2023-04-16T23:52:14.148Z,12.15
2023-04-16T23:54:41.124Z,10.38
2023-04-16T23:57:08.091Z,8.07
2023-04-16T23:59:35.212Z,9.52
